createdAt,value
2022-12-11T00:02:31.964Z,12.03
2022-12-11T00:05:41.110Z,8.93
2022-12-11T00:08:47.929Z,12.13
2022-12-11T00:11:54.186Z,10.93
2022-12-11T00:15:02.203Z,9.63
2022-12-11T00:18:09.861Z,9.00
2022-12-11T00:21:16.622Z,5.97
2022-12-11T00:24:23.130Z,3.63
2022-12-11T00:27:30.036Z,7.83
2022-12-11T00:30:54.176Z,7.60
2022-12-11T00:34:00.360Z,4.10
2022-12-11T00:37:07.065Z,6.13
2022-12-11T00:40:13.740Z,10.70
2022-12-11T00:43:20.038Z,11.03
2022-12-11T00:46:27.812Z,9.93
2022-12-11T00:49:34.124Z,8.10
2022-12-11T00:52:40.872Z,5.67
2022-12-11T00:55:47.504Z,2.77
2022-12-11T00:58:53.570Z,2.97
2022-12-11T01:02:01.187Z,3.70
2022-12-11T01:05:09.245Z,3.63
2022-12-11T01:08:15.709Z,7.70
2022-12-11T01:11:22.105Z,8.07
2022-12-11T01:14:28.554Z,9.90
2022-12-11T01:17:36.213Z,5.27
2022-12-11T01:20:43.719Z,10.80
2022-12-11T01:23:51.525Z,5.77
2022-12-11T01:26:57.529Z,6.73
2022-12-11T01:30:03.733Z,6.90
2022-12-11T01:33:11.813Z,8.57
2022-12-11T01:36:21.027Z,5.03
2022-12-11T01:39:27.288Z,5.13
2022-12-11T01:42:33.373Z,3.63
2022-12-11T01:45:44.843Z,3.53
2022-12-11T01:48:52.765Z,3.73
2022-12-11T01:52:01.911Z,4.17
2022-12-11T01:55:10.208Z,3.10
2022-12-11T01:58:19.492Z,2.97
2022-12-11T02:01:33.567Z,5.87
2022-12-11T02:04:43.373Z,3.97
2022-12-11T02:07:53.743Z,4.43
2022-12-11T02:11:07.699Z,7.20
2022-12-11T02:14:21.660Z,4.93
2022-12-11T02:17:35.146Z,2.03
2022-12-11T02:20:49.365Z,3.10
2022-12-11T02:24:10.397Z,2.53
2022-12-11T02:27:28.725Z,4.73
2022-12-11T02:30:38.436Z,7.60
2022-12-11T02:34:00.029Z,2.30
2022-12-11T02:37:11.125Z,5.73
2022-12-11T02:40:23.569Z,3.83
2022-12-11T02:43:32.308Z,3.43
2022-12-11T02:46:41.629Z,3.93
2022-12-11T02:49:50.899Z,6.23
2022-12-11T02:52:59.469Z,3.33
2022-12-11T02:56:12.394Z,5.30
2022-12-11T02:59:22.872Z,2.27
2022-12-11T03:02:31.092Z,19.00
2022-12-11T03:05:37.595Z,7.13
2022-12-11T03:08:44.097Z,7.73
2022-12-11T03:11:50.754Z,5.07
2022-12-11T03:14:59.573Z,11.20
2022-12-11T03:18:11.768Z,10.07
2022-12-11T03:21:25.342Z,5.40
2022-12-11T03:24:39.955Z,6.77
2022-12-11T03:27:52.042Z,10.07
2022-12-11T03:30:59.491Z,8.37
2022-12-11T03:34:20.749Z,15.20
2022-12-11T03:37:29.998Z,11.37
2022-12-11T03:40:38.260Z,23.10
2022-12-11T03:43:46.295Z,18.13
2022-12-11T03:46:53.785Z,11.10
2022-12-11T03:50:02.745Z,9.53
2022-12-11T03:53:09.434Z,15.53
2022-12-11T03:56:18.833Z,6.57
2022-12-11T03:59:25.578Z,9.93
2022-12-11T04:02:32.425Z,16.73
2022-12-11T04:05:40.609Z,5.00
2022-12-11T04:08:47.256Z,7.67
2022-12-11T04:11:53.273Z,3.47
2022-12-11T04:15:05.686Z,3.47
2022-12-11T04:18:29.801Z,3.80
2022-12-11T04:21:51.102Z,6.90
2022-12-11T04:24:57.539Z,9.77
2022-12-11T04:28:03.618Z,9.13
2022-12-11T04:31:13.394Z,4.37
2022-12-11T04:34:19.972Z,7.57
2022-12-11T04:37:28.573Z,12.73
2022-12-11T04:40:35.026Z,13.30
2022-12-11T04:43:41.842Z,12.07
2022-12-11T04:46:48.310Z,21.00
2022-12-11T04:50:09.486Z,15.93
2022-12-11T04:53:17.361Z,24.33
2022-12-11T04:56:23.552Z,14.77
2022-12-11T04:59:29.606Z,4.73
2022-12-11T05:02:37.152Z,7.60
2022-12-11T05:05:49.125Z,7.63
2022-12-11T05:08:57.146Z,3.30
2022-12-11T05:12:03.709Z,4.77
2022-12-11T05:15:11.327Z,2.93
2022-12-11T05:18:18.106Z,3.47
2022-12-11T05:21:24.117Z,2.70
2022-12-11T05:24:31.793Z,1.80
2022-12-11T05:27:37.974Z,14.97
2022-12-11T05:30:44.302Z,9.37
2022-12-11T05:34:05.778Z,9.73
2022-12-11T05:37:12.027Z,13.23
2022-12-11T05:40:19.927Z,6.50
2022-12-11T05:43:27.299Z,12.37
2022-12-11T05:46:33.605Z,7.17
2022-12-11T05:49:40.412Z,7.33
2022-12-11T05:52:46.798Z,9.27
2022-12-11T05:55:54.433Z,10.73
2022-12-11T05:59:02.014Z,11.33
2022-12-11T06:02:08.269Z,11.80
2022-12-11T06:05:14.903Z,11.80
2022-12-11T06:08:32.120Z,13.83
2022-12-11T06:11:39.919Z,7.53
2022-12-11T06:14:46.012Z,7.97
2022-12-11T06:17:52.345Z,11.70
2022-12-11T06:20:58.492Z,31.77
2022-12-11T06:24:05.822Z,46.00
2022-12-11T06:27:15.534Z,15.57
2022-12-11T06:30:21.564Z,14.90
2022-12-11T06:33:28.170Z,8.40
2022-12-11T06:36:34.075Z,7.80
2022-12-11T06:39:40.441Z,10.07
2022-12-11T06:42:48.516Z,20.20
2022-12-11T06:45:59.164Z,14.90
2022-12-11T06:49:08.362Z,13.70
2022-12-11T06:52:18.369Z,8.53
2022-12-11T06:55:39.034Z,7.60
2022-12-11T06:58:46.560Z,8.40
2022-12-11T07:01:52.931Z,7.10
2022-12-11T07:04:59.531Z,34.57
2022-12-11T07:08:07.552Z,26.20
2022-12-11T07:11:15.369Z,18.77
2022-12-11T07:14:23.086Z,16.43
2022-12-11T07:17:30.298Z,8.47
2022-12-11T07:20:37.203Z,8.47
2022-12-11T07:23:43.552Z,5.83
2022-12-11T07:26:50.094Z,10.33
2022-12-11T07:29:57.850Z,4.27
2022-12-11T07:33:04.511Z,2.37
2022-12-11T07:36:13.493Z,3.67
2022-12-11T07:39:19.746Z,2.50
2022-12-11T07:42:25.854Z,4.20
2022-12-11T07:45:33.647Z,8.20
2022-12-11T07:48:53.870Z,4.20
2022-12-11T07:51:59.954Z,9.27
2022-12-11T07:55:07.200Z,8.23
2022-12-11T07:58:13.757Z,6.83
2022-12-11T08:01:22.975Z,11.57
2022-12-11T08:04:29.273Z,10.50
2022-12-11T08:07:36.887Z,8.37
2022-12-11T08:10:43.674Z,11.33
2022-12-11T08:13:50.914Z,14.60
2022-12-11T08:17:00.334Z,8.77
2022-12-11T08:20:08.432Z,7.57
2022-12-11T08:23:14.692Z,18.57
2022-12-11T08:26:24.069Z,9.43
2022-12-11T08:29:29.996Z,13.70
2022-12-11T08:32:38.336Z,13.87
2022-12-11T08:35:46.537Z,12.87
2022-12-11T08:38:53.283Z,8.87
2022-12-11T08:41:59.876Z,23.33
2022-12-11T08:45:07.567Z,13.17
2022-12-11T08:48:15.765Z,17.20
2022-12-11T08:51:23.873Z,19.57
2022-12-11T08:54:30.092Z,34.53
2022-12-11T08:57:36.621Z,40.80
2022-12-11T09:00:42.911Z,38.83
2022-12-11T09:03:50.753Z,45.50
2022-12-11T09:06:57.124Z,29.40
2022-12-11T09:10:03.891Z,21.10
2022-12-11T09:13:10.087Z,26.30
2022-12-11T09:16:19.242Z,13.33
2022-12-11T09:19:32.096Z,17.90
2022-12-11T09:22:38.898Z,19.67
2022-12-11T09:25:45.160Z,15.80
2022-12-11T09:28:53.450Z,20.67
2022-12-11T09:32:00.142Z,35.70
2022-12-11T09:35:10.441Z,49.60
2022-12-11T09:38:16.801Z,33.37
2022-12-11T09:41:38.263Z,26.80
2022-12-11T09:44:48.306Z,22.03
2022-12-11T09:47:57.569Z,6.43
2022-12-11T09:51:14.761Z,4.67
2022-12-11T09:54:20.844Z,7.53
2022-12-11T09:57:44.154Z,7.63
2022-12-11T10:00:56.617Z,15.43
2022-12-11T10:04:22.204Z,13.63
2022-12-11T10:07:38.107Z,16.37
2022-12-11T10:10:50.928Z,4.57
2022-12-11T10:14:07.842Z,7.10
2022-12-11T10:17:20.275Z,13.27
2022-12-11T10:20:31.268Z,15.13
2022-12-11T10:23:45.401Z,13.03
2022-12-11T10:26:57.947Z,8.20
2022-12-11T10:30:15.800Z,12.03
2022-12-11T10:33:24.124Z,24.80
2022-12-11T10:36:32.700Z,17.83
2022-12-11T10:39:40.202Z,8.33
2022-12-11T10:42:56.074Z,13.83
2022-12-11T10:46:02.520Z,16.40
2022-12-11T10:49:23.185Z,26.43
2022-12-11T10:52:33.785Z,10.37
2022-12-11T10:55:47.026Z,11.10
2022-12-11T10:58:55.742Z,7.63
2022-12-11T11:02:02.840Z,8.60
2022-12-11T11:05:15.343Z,7.27
2022-12-11T11:08:24.012Z,54.10
2022-12-11T11:11:34.480Z,38.07
2022-12-11T11:14:40.998Z,29.37
2022-12-11T11:17:54.969Z,26.63
2022-12-11T11:21:02.827Z,11.33
2022-12-11T11:24:29.898Z,11.83
2022-12-11T11:27:43.625Z,6.30
2022-12-11T11:31:06.641Z,7.90
2022-12-11T11:34:22.438Z,9.53
2022-12-11T11:37:34.149Z,13.77
2022-12-11T11:40:48.060Z,17.13
2022-12-11T11:44:00.721Z,15.07
2022-12-11T11:47:16.047Z,37.03
2022-12-11T11:50:33.399Z,20.83
2022-12-11T11:53:41.884Z,28.17
2022-12-11T11:56:51.388Z,21.20
2022-12-11T12:00:09.975Z,16.07
2022-12-11T12:03:19.874Z,25.90
2022-12-11T12:06:38.421Z,18.10
2022-12-11T12:09:52.907Z,9.03
2022-12-11T12:13:03.272Z,26.80
2022-12-11T12:16:51.113Z,33.53
2022-12-11T12:19:53.259Z,45.43
2022-12-11T12:23:16.203Z,13.40
2022-12-11T12:26:28.366Z,17.53
2022-12-11T12:29:49.613Z,35.17
2022-12-11T12:33:21.419Z,48.07
2022-12-11T12:36:35.665Z,36.10
2022-12-11T12:39:50.681Z,42.80
2022-12-11T12:43:06.711Z,39.23
2022-12-11T12:46:22.308Z,67.00
2022-12-11T12:49:41.349Z,35.73
2022-12-11T12:52:50.207Z,40.13
2022-12-11T12:56:08.971Z,28.20
2022-12-11T12:59:24.056Z,28.87
2022-12-11T13:02:31.555Z,19.63
2022-12-11T13:05:42.257Z,20.57
2022-12-11T13:08:51.920Z,36.40
2022-12-11T13:12:00.513Z,22.00
2022-12-11T13:15:07.820Z,18.20
2022-12-11T13:18:35.946Z,13.77
2022-12-11T13:21:43.937Z,21.13
2022-12-11T13:24:59.753Z,23.13
2022-12-11T13:28:08.553Z,11.10
2022-12-11T13:31:34.609Z,42.20
2022-12-11T13:34:44.024Z,28.27
2022-12-11T13:37:54.073Z,17.40
2022-12-11T13:41:01.439Z,16.97
2022-12-11T13:44:09.591Z,7.30
2022-12-11T13:47:18.801Z,6.63
2022-12-11T13:50:30.128Z,5.33
2022-12-11T13:53:37.983Z,6.80
2022-12-11T13:56:55.873Z,5.57
2022-12-11T14:00:01.728Z,10.63
2022-12-11T14:03:08.562Z,17.50
2022-12-11T14:06:18.745Z,64.47
2022-12-11T14:09:29.195Z,34.67
2022-12-11T14:12:35.296Z,26.67
2022-12-11T14:15:46.562Z,30.43
2022-12-11T14:18:54.529Z,27.00
2022-12-11T14:22:03.336Z,36.43
2022-12-11T14:25:22.470Z,39.70
2022-12-11T14:28:32.184Z,17.67
2022-12-11T14:31:41.975Z,9.83
2022-12-11T14:34:50.841Z,14.67
2022-12-11T14:38:00.120Z,12.23
2022-12-11T14:41:15.050Z,14.30
2022-12-11T14:44:25.532Z,13.33
2022-12-11T14:47:35.558Z,15.73
2022-12-11T14:50:47.505Z,9.80
2022-12-11T14:53:55.585Z,29.33
2022-12-11T14:57:06.756Z,67.27
2022-12-11T15:00:24.069Z,25.60
2022-12-11T15:03:34.349Z,41.50
2022-12-11T15:06:46.207Z,13.27
2022-12-11T15:09:53.158Z,28.13
2022-12-11T15:13:01.245Z,13.53
2022-12-11T15:16:10.260Z,27.17
2022-12-11T15:19:22.088Z,38.03
2022-12-11T15:22:33.217Z,47.23
2022-12-11T15:25:39.947Z,36.77
2022-12-11T15:28:47.758Z,31.87
2022-12-11T15:32:01.648Z,19.50
2022-12-11T15:35:23.632Z,15.07
2022-12-11T15:38:37.542Z,15.23
2022-12-11T15:41:44.294Z,20.67
2022-12-11T15:44:52.244Z,49.07
2022-12-11T15:47:59.570Z,15.57
2022-12-11T15:51:06.545Z,27.40
2022-12-11T15:54:12.501Z,35.07
2022-12-11T15:57:22.986Z,30.53
2022-12-11T16:00:31.182Z,32.00
2022-12-11T16:03:37.812Z,34.97
2022-12-11T16:06:46.497Z,42.80
2022-12-11T16:09:53.288Z,26.03
2022-12-11T16:13:02.689Z,21.67
2022-12-11T16:16:10.780Z,15.60
2022-12-11T16:19:17.132Z,25.93
2022-12-11T16:22:23.433Z,24.33
2022-12-11T16:25:29.861Z,25.47
2022-12-11T16:28:36.307Z,28.63
2022-12-11T16:31:44.316Z,29.20
2022-12-11T16:34:50.437Z,38.43
2022-12-11T16:37:57.270Z,76.50
2022-12-11T16:41:03.822Z,59.50
2022-12-11T16:44:10.618Z,56.40
2022-12-11T16:47:18.225Z,28.90
2022-12-11T16:50:25.470Z,22.23
2022-12-11T16:53:31.644Z,27.10
2022-12-11T16:56:38.157Z,56.23
2022-12-11T16:59:44.534Z,48.47
2022-12-11T17:02:52.149Z,37.03
2022-12-11T17:05:59.244Z,38.87
2022-12-11T17:09:05.668Z,53.77
2022-12-11T17:12:12.049Z,46.13
2022-12-11T17:15:18.721Z,20.20
2022-12-11T17:18:26.883Z,9.57
2022-12-11T17:21:33.209Z,29.33
2022-12-11T17:24:39.742Z,19.63
2022-12-11T17:27:46.324Z,23.07
2022-12-11T17:30:53.332Z,85.97
2022-12-11T17:34:01.794Z,56.87
2022-12-11T17:37:08.285Z,23.00
2022-12-11T17:40:14.582Z,11.27
2022-12-11T17:43:21.170Z,20.73
2022-12-11T17:46:27.411Z,30.03
2022-12-11T17:49:35.125Z,61.33
2022-12-11T17:52:44.357Z,69.37
2022-12-11T17:55:52.084Z,33.43
2022-12-11T17:58:59.706Z,19.00
2022-12-11T18:02:05.939Z,13.03
2022-12-11T18:05:15.087Z,27.70
2022-12-11T18:08:24.633Z,62.57
2022-12-11T18:11:30.842Z,37.10
2022-12-11T18:14:37.930Z,26.97
2022-12-11T18:17:44.238Z,27.93
2022-12-11T18:20:51.969Z,29.33
2022-12-11T18:23:58.438Z,31.43
2022-12-11T18:27:05.123Z,43.73
2022-12-11T18:30:14.312Z,37.07
2022-12-11T18:33:20.543Z,40.10
2022-12-11T18:36:29.785Z,37.33
2022-12-11T18:39:36.357Z,38.50
2022-12-11T18:42:42.557Z,19.57
2022-12-11T18:45:48.743Z,20.90
2022-12-11T18:48:54.936Z,23.73
2022-12-11T18:52:03.934Z,15.33
2022-12-11T18:55:10.830Z,36.23
2022-12-11T18:58:20.731Z,38.97
2022-12-11T19:01:28.998Z,23.37
2022-12-11T19:04:36.292Z,16.13
2022-12-11T19:07:43.879Z,21.67
2022-12-11T19:10:50.189Z,15.53
2022-12-11T19:13:57.852Z,11.30
2022-12-11T19:17:04.579Z,31.83
2022-12-11T19:20:47.088Z,46.27
2022-12-11T19:23:41.654Z,40.33
2022-12-11T19:26:48.584Z,52.73
2022-12-11T19:29:55.048Z,38.27
2022-12-11T19:33:01.373Z,57.37
2022-12-11T19:36:10.645Z,42.03
2022-12-11T19:39:19.757Z,40.13
2022-12-11T19:42:27.573Z,43.83
2022-12-11T19:45:33.616Z,36.80
2022-12-11T19:48:41.588Z,28.87
2022-12-11T19:51:48.371Z,30.07
2022-12-11T19:54:56.049Z,42.73
2022-12-11T19:58:02.432Z,39.63
2022-12-11T20:01:09.351Z,36.17
2022-12-11T20:04:17.377Z,26.33
2022-12-11T20:07:30.213Z,23.37
2022-12-11T20:10:38.651Z,22.30
2022-12-11T20:13:46.014Z,19.43
2022-12-11T20:17:12.946Z,23.83
2022-12-11T20:20:21.407Z,29.53
2022-12-11T20:23:27.591Z,38.70
2022-12-11T20:26:36.613Z,24.97
2022-12-11T20:29:42.673Z,21.87
2022-12-11T20:32:48.841Z,38.50
2022-12-11T20:35:54.856Z,38.47
2022-12-11T20:39:01.318Z,22.67
2022-12-11T20:42:11.054Z,27.53
2022-12-11T20:45:18.440Z,81.83
2022-12-11T20:48:24.798Z,54.90
2022-12-11T20:51:32.791Z,28.20
2022-12-11T20:54:39.245Z,45.40
2022-12-11T20:57:46.572Z,35.97
2022-12-11T21:00:52.718Z,24.20
2022-12-11T21:03:59.323Z,29.97
2022-12-11T21:07:05.174Z,27.53
2022-12-11T21:10:11.838Z,24.80
2022-12-11T21:13:19.355Z,23.23
2022-12-11T21:16:25.807Z,36.23
2022-12-11T21:19:32.138Z,33.43
2022-12-11T21:22:38.345Z,41.97
2022-12-11T21:25:45.060Z,39.77
2022-12-11T21:28:54.501Z,24.20
2022-12-11T21:32:01.198Z,24.57
2022-12-11T21:35:08.533Z,21.30
2022-12-11T21:38:15.012Z,18.87
2022-12-11T21:41:24.160Z,11.83
2022-12-11T21:47:58.783Z,12.73
2022-12-11T21:51:09.996Z,12.43
2022-12-11T21:54:18.696Z,7.37
2022-12-11T21:57:26.837Z,9.03
2022-12-11T22:00:37.036Z,3.90
2022-12-11T22:03:43.836Z,3.73
2022-12-11T22:06:49.937Z,6.97
2022-12-11T22:09:56.237Z,9.60
2022-12-11T22:13:02.725Z,8.40
2022-12-11T22:16:10.465Z,5.87
2022-12-11T22:19:16.757Z,5.63
2022-12-11T22:22:23.113Z,8.00
2022-12-11T22:25:29.141Z,6.43
2022-12-11T22:28:35.357Z,6.83
2022-12-11T22:31:43.127Z,6.30
2022-12-11T22:34:49.294Z,8.80
2022-12-11T22:37:55.702Z,5.07
2022-12-11T22:41:03.101Z,3.60
2022-12-11T22:44:14.048Z,6.50
2022-12-11T22:47:21.708Z,3.97
2022-12-11T22:50:27.980Z,2.40
2022-12-11T22:53:34.303Z,1.70
2022-12-11T22:56:40.588Z,3.23
2022-12-11T22:59:46.637Z,5.73
2022-12-11T23:02:54.570Z,69.20
2022-12-11T23:06:05.118Z,17.97
2022-12-11T23:09:12.318Z,5.73
2022-12-11T23:12:18.979Z,3.07
2022-12-11T23:15:25.563Z,5.03
2022-12-11T23:18:33.023Z,4.20
2022-12-11T23:21:39.828Z,3.87
2022-12-11T23:24:45.880Z,3.17
2022-12-11T23:27:51.876Z,3.67
2022-12-11T23:30:58.442Z,3.83
2022-12-11T23:34:06.404Z,2.93
2022-12-11T23:37:12.689Z,10.20
2022-12-11T23:40:19.101Z,2.73
2022-12-11T23:43:25.238Z,2.93
2022-12-11T23:46:31.579Z,2.70
2022-12-11T23:49:39.027Z,2.13
2022-12-11T23:52:44.956Z,2.47
2022-12-11T23:55:50.826Z,1.83
2022-12-11T23:58:57.513Z,2.00
